Hauptseite
METAR-TAF:

METAR-TAF

Flughäfen :

Flughafen Jersey

Jersey,

Breite: 49-13N, Länge: 002-12W, Höhe: 84 m

Beobachtung

Neuester Wetterbericht von vor 37 Minuten, um 05:20 UTC
Wind 14 kt aus Ost
Temperatur 6°C
Luftfeuchtigkeit 75%
Luftdruck 1016 hPa
Sichtweite 10 km oder mehr

METAR: EGJJ 190520Z AUTO 08014KT 9999 NCD 06/02 Q1016

Zeit: 05:57 (05:57 UTC)

Prognose

Neuester Wetterbericht von vor 59 Minuten, um 04:58 UTC
Gültige Prognose vom 19 um 06 UTC bis 19 um 15 UTC
Wind 16 kt aus Ost, Böen bis zu 26 kt
Sichtweite 10 km oder mehr
keine Wolken unter 1500 m und keine Kumulonimbus oder Gewitterwolken

TAF: EGJJ 190458Z 1906/1915 08016G26KT CAVOK

Wetterbeobachtungen und Prognosen von mehr als 4000 Flughäfen (METAR und TAF Bericht).

Die verfügbaren Stationen werden durch gelbe und rote Markierungen auf der Karte dargestellt.

Führen Sie die Maus auf sie, um den Namen der Station zu sehen.

Darauf klicken, um die Beobachtung von Wetterbeobachtungen und Prognosen zu sehen.

Um die Karte zu ändern : klicken Sie auf den grünen Tasten mit einem schwarzen Kreuz Zum Vergrößern, auf den grünen Button mit einem Gedankenstrich zu verkleinern, oder auf die grünen Pfeile für benachbarte Karten.


METAR-TAF: